Missoula, MT (59802)

10:15 AM MDT on April 19, 2015 (GMT -0600)
Rose Park | | Change Station
CLOSE
Current Station
Personal Weather Station
Location: Missoula, MT
Elevation: 3210 ft
Nearby Weather Stations

Elev 3210 ft 46.86 °N, 114.01 °W | Updated 41 seconds ago

Clear
Clear
51.0 °F
Feels Like 51.0 °F
N
6.0
Wind Variable Wind from NNE
Gusts 9.0 mph

Today
High -- | Low -- °F
--% Chance of Precip.
Yesterday
High -- | Low -- °F
Precip. -- in
6:41 AM 8:29 PM
New Moon, 1% visible
Pressure 30.23 in
Visibility 10.0 miles
Clouds Clear
Dew Point 30 °F
Humidity 45%
Rainfall 0.00 in
Snow Depth Not available.
UV 3 out of 12
Pollen 9.50 out of 12
Air Quality Not available.
Flu Activity Regional
METAR KMSO 191553Z 16004KT 10SM CLR 08/M03 A3021 RMK AO2 SLP235 T00831028

More Conditions Fewer Conditions

Pressure 30.23 in
Visibility 10.0 miles
Clouds Clear
Dew Point 30 °F
Humidity 45%
Rainfall 0.00 in
Snow Depth Not available.
UV 3 out of 12
Pollen 9.50 out of 12
Air Quality Not available.
Flu Activity Regional
METAR KMSO 191553Z 16004KT 10SM CLR 08/M03 A3021 RMK AO2 SLP235 T00831028

More Conditions Fewer Conditions

10-Day Weather Forecast

Almanac

Astronomy

Apr. 19, 2015 Rise Set
Actual Time
Civil Twilight
Nautical Twilight
Astronomical Twilight
Moon
Length of Visible Light
Length of Day
Tomorrow will be .
, % of the Moon is Illuminated

Today's Extremes

State Highs State Lows

Community

WunderPhotos

Upload Photos

1,814,842 photos uploaded!

WunderBlogs® & News

Nearby

Air Quality

  Air Quality AQ Index Pollutant
Not available.

Snow Depth

Station Depth Elevation

Earthquake Activity

City Distance Mag. Time & Date
Minimum magnitude displayed is 2.5.

Coastal Water Temperatures

Place Temperature

Stations

Nearby Weather Stations

Station Location Temp. Windchill Dew Point Humidity Wind Precip. Elev Updated Type